sensor_id;sensor_type;location;lat;lon;timestamp;pressure;altitude;pressure_sealevel;temperature;humidity
48680;BME280;34475;51.658;5.634;2023-03-15T00:00:00;100990;;;2.7;100.0
48680;BME280;34475;51.658;5.634;2023-03-15T00:01:01;100990;;;2.7;100.0
48680;BME280;34475;51.658;5.634;2023-03-15T00:02:00;100990;;;2.7;100.0
48680;BME280;34475;51.658;5.634;2023-03-15T00:03:00;100990;;;2.7;100.0
48680;BME280;34475;51.658;5.634;2023-03-15T00:04:00;100980;;;2.8;100.0
48680;BME280;34475;51.658;5.634;2023-03-15T00:05:00;100980;;;2.8;100.0
48680;BME280;34475;51.658;5.634;2023-03-15T00:06:00;100980;;;2.8;100.0
48680;BME280;34475;51.658;5.634;2023-03-15T00:07:00;100980;;;2.8;100.0
48680;BME280;34475;51.658;5.634;2023-03-15T00:08:00;100970;;;2.8;100.0
48680;BME280;34475;51.658;5.634;2023-03-15T00:09:00;100970;;;2.8;100.0
48680;BME280;34475;51.658;5.634;2023-03-15T00:10:00;100970;;;2.8;100.0
48680;BME280;34475;51.658;5.634;2023-03-15T00:11:00;100970;;;2.8;100.0
48680;BME280;34475;51.658;5.634;2023-03-15T00:12:00;100970;;;2.8;100.0
48680;BME280;34475;51.658;5.634;2023-03-15T00:13:00;100970;;;2.8;100.0
48680;BME280;34475;51.658;5.634;2023-03-15T00:14:00;100970;;;2.9;100.0
48680;BME280;34475;51.658;5.634;2023-03-15T00:15:00;100970;;;2.9;100.0
48680;BME280;34475;51.658;5.634;2023-03-15T00:16:00;100980;;;2.8;100.0
48680;BME280;34475;51.658;5.634;2023-03-15T00:17:00;100980;;;2.8;100.0
48680;BME280;34475;51.658;5.634;2023-03-15T00:18:00;100970;;;2.8;100.0
48680;BME280;34475;51.658;5.634;2023-03-15T00:19:00;100970;;;2.8;100.0
48680;BME280;34475;51.658;5.634;2023-03-15T00:20:00;100980;;;2.8;100.0
48680;BME280;34475;51.658;5.634;2023-03-15T00:21:00;100980;;;2.8;100.0
48680;BME280;34475;51.658;5.634;2023-03-15T00:22:00;100980;;;2.9;100.0
48680;BME280;34475;51.658;5.634;2023-03-15T00:23:00;100980;;;2.9;100.0
48680;BME280;34475;51.658;5.634;2023-03-15T00:24:00;100980;;;2.8;100.0
48680;BME280;34475;51.658;5.634;2023-03-15T00:25:00;100980;;;2.8;100.0
48680;BME280;34475;51.658;5.634;2023-03-15T00:26:00;100980;;;2.9;100.0
48680;BME280;34475;51.658;5.634;2023-03-15T00:27:00;100980;;;2.9;100.0
48680;BME280;34475;51.658;5.634;2023-03-15T00:28:00;100980;;;3.0;100.0
48680;BME280;34475;51.658;5.634;2023-03-15T00:29:00;100980;;;3.0;100.0
48680;BME280;34475;51.658;5.634;2023-03-15T00:30:00;100980;;;2.9;100.0
48680;BME280;34475;51.658;5.634;2023-03-15T00:31:17;100980;;;2.9;100.0
48680;BME280;34475;51.658;5.634;2023-03-15T00:32:00;100980;;;2.9;100.0
48680;BME280;34475;51.658;5.634;2023-03-15T00:33:00;100980;;;2.9;100.0
48680;BME280;34475;51.658;5.634;2023-03-15T00:34:00;100980;;;3.0;100.0
48680;BME280;34475;51.658;5.634;2023-03-15T00:35:00;100980;;;3.0;100.0
48680;BME280;34475;51.658;5.634;2023-03-15T00:36:02;100980;;;3.0;100.0
48680;BME280;34475;51.658;5.634;2023-03-15T00:37:00;100980;;;3.0;100.0
48680;BME280;34475;51.658;5.634;2023-03-15T00:38:00;100980;;;2.9;100.0
48680;BME280;34475;51.658;5.634;2023-03-15T00:39:00;100980;;;2.9;100.0
48680;BME280;34475;51.658;5.634;2023-03-15T00:40:00;100980;;;3.0;100.0
48680;BME280;34475;51.658;5.634;2023-03-15T00:41:04;100980;;;3.0;100.0
48680;BME280;34475;51.658;5.634;2023-03-15T00:42:00;100970;;;3.0;100.0
48680;BME280;34475;51.658;5.634;2023-03-15T00:43:00;100970;;;3.0;100.0
48680;BME280;34475;51.658;5.634;2023-03-15T00:44:00;100980;;;3.0;100.0
48680;BME280;34475;51.658;5.634;2023-03-15T00:45:00;100980;;;3.0;100.0
48680;BME280;34475;51.658;5.634;2023-03-15T00:46:00;100980;;;3.0;100.0
48680;BME280;34475;51.658;5.634;2023-03-15T00:47:00;100980;;;3.0;100.0
48680;BME280;34475;51.658;5.634;2023-03-15T00:48:00;100990;;;3.0;100.0
48680;BME280;34475;51.658;5.634;2023-03-15T00:49:00;100990;;;3.0;100.0
48680;BME280;34475;51.658;5.634;2023-03-15T00:50:00;100990;;;3.1;100.0
48680;BME280;34475;51.658;5.634;2023-03-15T00:51:01;100990;;;3.1;100.0
48680;BME280;34475;51.658;5.634;2023-03-15T00:52:00;100990;;;3.0;100.0
48680;BME280;34475;51.658;5.634;2023-03-15T00:53:00;100990;;;3.0;100.0
48680;BME280;34475;51.658;5.634;2023-03-15T00:54:00;100990;;;3.1;100.0
48680;BME280;34475;51.658;5.634;2023-03-15T00:55:00;100990;;;3.1;100.0
48680;BME280;34475;51.658;5.634;2023-03-15T00:56:08;101000;;;3.2;100.0
48680;BME280;34475;51.658;5.634;2023-03-15T00:57:00;101000;;;3.2;100.0
48680;BME280;34475;51.658;5.634;2023-03-15T00:58:00;101000;;;3.1;100.0
48680;BME280;34475;51.658;5.634;2023-03-15T00:59:00;101000;;;3.1;100.0
48680;BME280;34475;51.658;5.634;2023-03-15T01:00:00;101000;;;3.2;100.0
48680;BME280;34475;51.658;5.634;2023-03-15T01:01:03;101000;;;3.2;100.0
48680;BME280;34475;51.658;5.634;2023-03-15T01:02:00;101000;;;3.2;100.0
48680;BME280;34475;51.658;5.634;2023-03-15T01:03:00;101000;;;3.2;100.0
48680;BME280;34475;51.658;5.634;2023-03-15T01:04:00;101010;;;3.3;100.0
48680;BME280;34475;51.658;5.634;2023-03-15T01:05:00;101010;;;3.3;100.0
48680;BME280;34475;51.658;5.634;2023-03-15T01:06:08;101020;;;3.4;100.0
48680;BME280;34475;51.658;5.634;2023-03-15T01:07:00;101020;;;3.4;100.0
48680;BME280;34475;51.658;5.634;2023-03-15T01:08:00;101020;;;3.5;100.0
48680;BME280;34475;51.658;5.634;2023-03-15T01:09:00;101020;;;3.5;100.0
48680;BME280;34475;51.658;5.634;2023-03-15T01:10:00;101030;;;3.5;100.0
48680;BME280;34475;51.658;5.634;2023-03-15T01:11:01;101030;;;3.5;100.0
48680;BME280;34475;51.658;5.634;2023-03-15T01:12:00;101020;;;3.3;100.0
48680;BME280;34475;51.658;5.634;2023-03-15T01:13:00;101020;;;3.3;100.0
48680;BME280;34475;51.658;5.634;2023-03-15T01:14:00;101040;;;3.4;100.0
48680;BME280;34475;51.658;5.634;2023-03-15T01:15:01;101040;;;3.4;100.0
48680;BME280;34475;51.658;5.634;2023-03-15T01:16:00;101040;;;3.4;100.0
48680;BME280;34475;51.658;5.634;2023-03-15T01:17:00;101040;;;3.4;100.0
48680;BME280;34475;51.658;5.634;2023-03-15T01:18:00;101040;;;3.3;100.0
48680;BME280;34475;51.658;5.634;2023-03-15T01:19:00;101040;;;3.3;100.0
48680;BME280;34475;51.658;5.634;2023-03-15T01:20:00;101050;;;3.1;100.0
48680;BME280;34475;51.658;5.634;2023-03-15T01:21:00;101050;;;3.1;100.0
48680;BME280;34475;51.658;5.634;2023-03-15T01:22:00;101050;;;3.1;100.0
48680;BME280;34475;51.658;5.634;2023-03-15T01:23:00;101050;;;3.1;100.0
48680;BME280;34475;51.658;5.634;2023-03-15T01:24:00;101040;;;3.2;100.0
48680;BME280;34475;51.658;5.634;2023-03-15T01:25:00;101040;;;3.2;100.0
48680;BME280;34475;51.658;5.634;2023-03-15T01:26:01;101050;;;3.2;100.0
48680;BME280;34475;51.658;5.634;2023-03-15T01:27:00;101050;;;3.2;100.0
48680;BME280;34475;51.658;5.634;2023-03-15T01:28:00;101050;;;3.2;100.0
48680;BME280;34475;51.658;5.634;2023-03-15T01:29:00;101050;;;3.2;100.0
48680;BME280;34475;51.658;5.634;2023-03-15T01:30:00;101050;;;3.2;100.0
48680;BME280;34475;51.658;5.634;2023-03-15T01:31:00;101050;;;3.2;100.0
48680;BME280;34475;51.658;5.634;2023-03-15T01:32:00;101060;;;3.2;100.0
48680;BME280;34475;51.658;5.634;2023-03-15T01:33:00;101060;;;3.2;100.0
48680;BME280;34475;51.658;5.634;2023-03-15T01:34:00;101060;;;3.1;100.0
48680;BME280;34475;51.658;5.634;2023-03-15T01:35:00;101060;;;3.1;100.0
48680;BME280;34475;51.658;5.634;2023-03-15T01:36:01;101060;;;3.0;100.0
48680;BME280;34475;51.658;5.634;2023-03-15T01:37:00;101060;;;3.0;100.0
48680;BME280;34475;51.658;5.634;2023-03-15T01:38:00;101060;;;3.0;100.0
48680;BME280;34475;51.658;5.634;2023-03-15T01:39:00;101060;;;3.0;100.0
48680;BME280;34475;51.658;5.634;2023-03-15T01:40:00;101060;;;2.9;100.0
48680;BME280;34475;51.658;5.634;2023-03-15T01:41:00;101060;;;2.9;100.0
48680;BME280;34475;51.658;5.634;2023-03-15T01:42:00;101060;;;2.8;100.0
48680;BME280;34475;51.658;5.634;2023-03-15T01:44:00;101070;;;2.7;100.0
48680;BME280;34475;51.658;5.634;2023-03-15T01:45:00;101070;;;2.7;100.0
48680;BME280;34475;51.658;5.634;2023-03-15T01:47:00;101070;;;2.8;100.0
48680;BME280;34475;51.658;5.634;2023-03-15T01:48:00;101070;;;2.8;100.0
48680;BME280;34475;51.658;5.634;2023-03-15T01:49:08;101070;;;2.8;100.0
48680;BME280;34475;51.658;5.634;2023-03-15T01:50:02;101070;;;2.8;100.0
48680;BME280;34475;51.658;5.634;2023-03-15T01:51:01;101070;;;2.8;100.0
48680;BME280;34475;51.658;5.634;2023-03-15T01:52:01;101070;;;2.8;100.0
48680;BME280;34475;51.658;5.634;2023-03-15T01:53:00;101070;;;2.8;100.0
48680;BME280;34475;51.658;5.634;2023-03-15T01:54:17;101070;;;2.7;100.0
48680;BME280;34475;51.658;5.634;2023-03-15T01:55:04;101070;;;2.7;100.0
48680;BME280;34475;51.658;5.634;2023-03-15T01:56:00;101070;;;2.7;100.0
48680;BME280;34475;51.658;5.634;2023-03-15T01:57:08;101070;;;2.7;100.0
48680;BME280;34475;51.658;5.634;2023-03-15T01:58:00;101070;;;2.7;100.0
48680;BME280;34475;51.658;5.634;2023-03-15T01:59:00;101070;;;2.7;100.0
48680;BME280;34475;51.658;5.634;2023-03-15T02:00:02;101070;;;2.6;100.0
48680;BME280;34475;51.658;5.634;2023-03-15T02:01:00;101070;;;2.6;100.0
48680;BME280;34475;51.658;5.634;2023-03-15T02:02:00;101070;;;2.6;100.0
48680;BME280;34475;51.658;5.634;2023-03-15T02:03:02;101070;;;2.6;100.0
48680;BME280;34475;51.658;5.634;2023-03-15T02:04:02;101070;;;2.6;100.0
48680;BME280;34475;51.658;5.634;2023-03-15T02:05:02;101070;;;2.6;100.0
48680;BME280;34475;51.658;5.634;2023-03-15T02:06:02;101070;;;2.6;100.0
48680;BME280;34475;51.658;5.634;2023-03-15T02:07:01;101070;;;2.6;100.0
48680;BME280;34475;51.658;5.634;2023-03-15T02:08:00;101060;;;2.7;100.0
48680;BME280;34475;51.658;5.634;2023-03-15T02:09:02;101060;;;2.7;100.0
48680;BME280;34475;51.658;5.634;2023-03-15T02:10:03;101060;;;2.7;100.0
48680;BME280;34475;51.658;5.634;2023-03-15T02:11:00;101060;;;2.7;100.0
48680;BME280;34475;51.658;5.634;2023-03-15T02:12:00;101070;;;2.5;100.0
48680;BME280;34475;51.658;5.634;2023-03-15T02:13:00;101070;;;2.5;100.0
48680;BME280;34475;51.658;5.634;2023-03-15T02:14:00;101060;;;2.5;100.0
48680;BME280;34475;51.658;5.634;2023-03-15T02:15:00;101060;;;2.5;100.0
48680;BME280;34475;51.658;5.634;2023-03-15T02:16:00;101060;;;2.5;100.0
48680;BME280;34475;51.658;5.634;2023-03-15T02:17:00;101060;;;2.5;100.0
48680;BME280;34475;51.658;5.634;2023-03-15T02:18:00;101060;;;2.6;100.0
48680;BME280;34475;51.658;5.634;2023-03-15T02:19:00;101060;;;2.6;100.0
48680;BME280;34475;51.658;5.634;2023-03-15T02:22:04;101060;;;2.7;100.0
48680;BME280;34475;51.658;5.634;2023-03-15T02:24:04;101070;;;2.6;100.0
48680;BME280;34475;51.658;5.634;2023-03-15T02:27:00;101070;;;2.6;100.0
48680;BME280;34475;51.658;5.634;2023-03-15T02:28:00;101070;;;2.6;100.0
48680;BME280;34475;51.658;5.634;2023-03-15T02:29:00;101070;;;2.6;100.0
48680;BME280;34475;51.658;5.634;2023-03-15T02:30:00;101070;;;2.6;100.0
48680;BME280;34475;51.658;5.634;2023-03-15T02:31:00;101070;;;2.6;100.0
48680;BME280;34475;51.658;5.634;2023-03-15T02:32:00;101070;;;2.6;100.0
48680;BME280;34475;51.658;5.634;2023-03-15T02:33:00;101070;;;2.6;100.0
48680;BME280;34475;51.658;5.634;2023-03-15T02:34:00;101070;;;2.5;100.0
48680;BME280;34475;51.658;5.634;2023-03-15T02:35:00;101070;;;2.5;100.0
48680;BME280;34475;51.658;5.634;2023-03-15T02:36:06;101070;;;2.6;100.0
48680;BME280;34475;51.658;5.634;2023-03-15T02:37:00;101070;;;2.6;100.0
48680;BME280;34475;51.658;5.634;2023-03-15T02:38:00;101070;;;2.6;100.0
48680;BME280;34475;51.658;5.634;2023-03-15T02:39:00;101070;;;2.6;100.0
48680;BME280;34475;51.658;5.634;2023-03-15T02:40:00;101070;;;2.7;100.0
48680;BME280;34475;51.658;5.634;2023-03-15T02:41:00;101070;;;2.7;100.0
48680;BME280;34475;51.658;5.634;2023-03-15T02:42:00;101070;;;2.7;100.0
48680;BME280;34475;51.658;5.634;2023-03-15T02:43:02;101070;;;2.7;100.0
48680;BME280;34475;51.658;5.634;2023-03-15T02:44:03;101070;;;2.6;100.0
48680;BME280;34475;51.658;5.634;2023-03-15T02:45:00;101070;;;2.6;100.0
48680;BME280;34475;51.658;5.634;2023-03-15T02:46:00;101080;;;2.7;100.0
48680;BME280;34475;51.658;5.634;2023-03-15T02:47:02;101080;;;2.7;100.0
48680;BME280;34475;51.658;5.634;2023-03-15T02:48:00;101080;;;2.7;100.0
48680;BME280;34475;51.658;5.634;2023-03-15T02:49:00;101080;;;2.7;100.0
48680;BME280;34475;51.658;5.634;2023-03-15T02:50:00;101080;;;2.7;100.0
48680;BME280;34475;51.658;5.634;2023-03-15T02:51:00;101080;;;2.7;100.0
48680;BME280;34475;51.658;5.634;2023-03-15T02:52:00;101080;;;2.7;100.0
48680;BME280;34475;51.658;5.634;2023-03-15T02:53:00;101080;;;2.7;100.0
48680;BME280;34475;51.658;5.634;2023-03-15T02:54:00;101080;;;2.6;100.0
48680;BME280;34475;51.658;5.634;2023-03-15T02:55:00;101080;;;2.6;100.0
48680;BME280;34475;51.658;5.634;2023-03-15T02:56:00;101080;;;2.7;100.0
48680;BME280;34475;51.658;5.634;2023-03-15T02:57:00;101080;;;2.7;100.0
48680;BME280;34475;51.658;5.634;2023-03-15T02:58:00;101090;;;2.7;100.0
48680;BME280;34475;51.658;5.634;2023-03-15T02:59:00;101090;;;2.7;100.0
48680;BME280;34475;51.658;5.634;2023-03-15T03:00:00;101090;;;2.7;100.0
48680;BME280;34475;51.658;5.634;2023-03-15T03:01:00;101090;;;2.7;100.0
48680;BME280;34475;51.658;5.634;2023-03-15T03:02:00;101090;;;2.6;100.0
48680;BME280;34475;51.658;5.634;2023-03-15T03:03:00;101090;;;2.6;100.0
48680;BME280;34475;51.658;5.634;2023-03-15T03:04:00;101100;;;2.6;100.0
48680;BME280;34475;51.658;5.634;2023-03-15T03:05:00;101100;;;2.6;100.0
48680;BME280;34475;51.658;5.634;2023-03-15T03:06:00;101100;;;2.6;100.0
48680;BME280;34475;51.658;5.634;2023-03-15T03:07:00;101100;;;2.6;100.0
48680;BME280;34475;51.658;5.634;2023-03-15T03:08:00;101100;;;2.7;100.0
48680;BME280;34475;51.658;5.634;2023-03-15T03:09:00;101100;;;2.7;100.0
48680;BME280;34475;51.658;5.634;2023-03-15T03:10:00;101100;;;2.7;100.0
48680;BME280;34475;51.658;5.634;2023-03-15T03:11:00;101100;;;2.7;100.0
48680;BME280;34475;51.658;5.634;2023-03-15T03:12:00;101100;;;2.7;100.0
48680;BME280;34475;51.658;5.634;2023-03-15T03:13:00;101100;;;2.7;100.0
48680;BME280;34475;51.658;5.634;2023-03-15T03:14:00;101110;;;2.8;100.0
48680;BME280;34475;51.658;5.634;2023-03-15T03:15:00;101110;;;2.8;100.0
48680;BME280;34475;51.658;5.634;2023-03-15T03:16:00;101120;;;2.7;100.0
48680;BME280;34475;51.658;5.634;2023-03-15T03:17:00;101120;;;2.7;100.0
48680;BME280;34475;51.658;5.634;2023-03-15T03:18:00;101120;;;2.7;100.0
48680;BME280;34475;51.658;5.634;2023-03-15T03:19:00;101120;;;2.7;100.0
48680;BME280;34475;51.658;5.634;2023-03-15T03:20:00;101130;;;2.7;100.0
48680;BME280;34475;51.658;5.634;2023-03-15T03:21:01;101130;;;2.7;100.0
48680;BME280;34475;51.658;5.634;2023-03-15T03:22:00;101130;;;2.7;100.0
48680;BME280;34475;51.658;5.634;2023-03-15T03:23:00;101130;;;2.7;100.0
48680;BME280;34475;51.658;5.634;2023-03-15T03:24:00;101130;;;2.7;100.0
48680;BME280;34475;51.658;5.634;2023-03-15T03:25:00;101130;;;2.7;100.0
48680;BME280;34475;51.658;5.634;2023-03-15T03:26:00;101130;;;2.7;100.0
48680;BME280;34475;51.658;5.634;2023-03-15T03:27:00;101130;;;2.7;100.0
48680;BME280;34475;51.658;5.634;2023-03-15T03:28:00;101140;;;2.7;100.0
48680;BME280;34475;51.658;5.634;2023-03-15T03:29:00;101140;;;2.7;100.0
48680;BME280;34475;51.658;5.634;2023-03-15T03:30:00;101140;;;2.7;100.0
48680;BME280;34475;51.658;5.634;2023-03-15T03:31:00;101140;;;2.7;100.0
48680;BME280;34475;51.658;5.634;2023-03-15T03:32:00;101140;;;2.6;100.0
48680;BME280;34475;51.658;5.634;2023-03-15T03:33:00;101140;;;2.6;100.0
48680;BME280;34475;51.658;5.634;2023-03-15T03:34:00;101150;;;2.6;100.0
48680;BME280;34475;51.658;5.634;2023-03-15T03:35:00;101150;;;2.6;100.0
48680;BME280;34475;51.658;5.634;2023-03-15T03:36:00;101150;;;2.6;100.0
48680;BME280;34475;51.658;5.634;2023-03-15T03:37:00;101150;;;2.6;100.0
48680;BME280;34475;51.658;5.634;2023-03-15T03:38:00;101150;;;2.5;100.0
48680;BME280;34475;51.658;5.634;2023-03-15T03:39:00;101150;;;2.5;100.0
48680;BME280;34475;51.658;5.634;2023-03-15T03:40:00;101150;;;2.5;100.0
48680;BME280;34475;51.658;5.634;2023-03-15T03:41:00;101150;;;2.5;100.0
48680;BME280;34475;51.658;5.634;2023-03-15T03:42:00;101160;;;2.5;100.0
48680;BME280;34475;51.658;5.634;2023-03-15T03:43:00;101160;;;2.5;100.0
48680;BME280;34475;51.658;5.634;2023-03-15T03:44:00;101160;;;2.4;100.0
48680;BME280;34475;51.658;5.634;2023-03-15T03:45:00;101160;;;2.4;100.0
48680;BME280;34475;51.658;5.634;2023-03-15T03:46:00;101170;;;2.3;100.0
48680;BME280;34475;51.658;5.634;2023-03-15T03:47:00;101170;;;2.3;100.0
48680;BME280;34475;51.658;5.634;2023-03-15T03:48:00;101170;;;2.3;100.0
48680;BME280;34475;51.658;5.634;2023-03-15T03:49:00;101170;;;2.3;100.0
48680;BME280;34475;51.658;5.634;2023-03-15T03:50:00;101180;;;2.3;100.0
48680;BME280;34475;51.658;5.634;2023-03-15T03:51:00;101180;;;2.3;100.0
48680;BME280;34475;51.658;5.634;2023-03-15T03:52:00;101180;;;2.2;100.0
48680;BME280;34475;51.658;5.634;2023-03-15T03:53:00;101180;;;2.2;100.0
48680;BME280;34475;51.658;5.634;2023-03-15T03:54:00;101180;;;2.2;100.0
48680;BME280;34475;51.658;5.634;2023-03-15T03:55:00;101180;;;2.2;100.0
48680;BME280;34475;51.658;5.634;2023-03-15T03:56:02;101180;;;2.3;100.0
48680;BME280;34475;51.658;5.634;2023-03-15T03:57:00;101180;;;2.3;100.0
48680;BME280;34475;51.658;5.634;2023-03-15T03:58:00;101170;;;2.3;100.0
48680;BME280;34475;51.658;5.634;2023-03-15T03:59:00;101170;;;2.3;100.0
48680;BME280;34475;51.658;5.634;2023-03-15T04:00:00;101180;;;2.2;100.0
48680;BME280;34475;51.658;5.634;2023-03-15T04:01:00;101180;;;2.2;100.0
48680;BME280;34475;51.658;5.634;2023-03-15T04:02:00;101180;;;2.2;100.0
48680;BME280;34475;51.658;5.634;2023-03-15T04:03:00;101180;;;2.2;100.0
48680;BME280;34475;51.658;5.634;2023-03-15T04:04:00;101180;;;2.2;100.0
48680;BME280;34475;51.658;5.634;2023-03-15T04:05:00;101180;;;2.2;100.0
48680;BME280;34475;51.658;5.634;2023-03-15T04:06:00;101180;;;2.2;100.0
48680;BME280;34475;51.658;5.634;2023-03-15T04:07:00;101180;;;2.2;100.0
48680;BME280;34475;51.658;5.634;2023-03-15T04:08:00;101180;;;2.2;100.0
48680;BME280;34475;51.658;5.634;2023-03-15T04:09:00;101180;;;2.2;100.0
48680;BME280;34475;51.658;5.634;2023-03-15T04:10:00;101180;;;2.2;100.0
48680;BME280;34475;51.658;5.634;2023-03-15T04:11:00;101180;;;2.2;100.0
48680;BME280;34475;51.658;5.634;2023-03-15T04:12:00;101180;;;2.2;100.0
48680;BME280;34475;51.658;5.634;2023-03-15T04:13:00;101180;;;2.2;100.0
48680;BME280;34475;51.658;5.634;2023-03-15T04:14:00;101190;;;2.0;100.0
48680;BME280;34475;51.658;5.634;2023-03-15T04:15:00;101190;;;2.0;100.0
48680;BME280;34475;51.658;5.634;2023-03-15T04:16:00;101200;;;2.0;100.0
48680;BME280;34475;51.658;5.634;2023-03-15T04:17:00;101200;;;2.0;100.0
48680;BME280;34475;51.658;5.634;2023-03-15T04:18:00;101200;;;2.0;100.0
48680;BME280;34475;51.658;5.634;2023-03-15T04:19:00;101200;;;2.0;100.0
48680;BME280;34475;51.658;5.634;2023-03-15T04:20:00;101200;;;2.0;100.0
48680;BME280;34475;51.658;5.634;2023-03-15T04:21:00;101200;;;2.0;100.0
48680;BME280;34475;51.658;5.634;2023-03-15T04:22:00;101200;;;1.9;100.0
48680;BME280;34475;51.658;5.634;2023-03-15T04:23:00;101200;;;1.9;100.0
48680;BME280;34475;51.658;5.634;2023-03-15T04:24:00;101210;;;1.9;100.0
48680;BME280;34475;51.658;5.634;2023-03-15T04:25:00;101210;;;1.9;100.0
48680;BME280;34475;51.658;5.634;2023-03-15T04:26:00;101210;;;1.9;100.0
48680;BME280;34475;51.658;5.634;2023-03-15T04:27:00;101210;;;1.9;100.0
48680;BME280;34475;51.658;5.634;2023-03-15T04:28:00;101220;;;1.9;100.0
48680;BME280;34475;51.658;5.634;2023-03-15T04:29:00;101220;;;1.9;100.0
48680;BME280;34475;51.658;5.634;2023-03-15T04:30:00;101230;;;1.9;100.0
48680;BME280;34475;51.658;5.634;2023-03-15T04:31:00;101230;;;1.9;100.0
48680;BME280;34475;51.658;5.634;2023-03-15T04:32:00;101230;;;1.9;100.0
48680;BME280;34475;51.658;5.634;2023-03-15T04:33:00;101230;;;1.9;100.0
48680;BME280;34475;51.658;5.634;2023-03-15T04:34:00;101240;;;1.9;100.0
48680;BME280;34475;51.658;5.634;2023-03-15T04:35:00;101240;;;1.9;100.0
48680;BME280;34475;51.658;5.634;2023-03-15T04:36:00;101240;;;1.9;100.0
48680;BME280;34475;51.658;5.634;2023-03-15T04:37:00;101240;;;1.9;100.0
48680;BME280;34475;51.658;5.634;2023-03-15T04:38:00;101230;;;2.0;100.0
48680;BME280;34475;51.658;5.634;2023-03-15T04:39:00;101230;;;2.0;100.0
48680;BME280;34475;51.658;5.634;2023-03-15T04:40:00;101230;;;1.9;100.0
48680;BME280;34475;51.658;5.634;2023-03-15T04:41:00;101230;;;1.9;100.0
48680;BME280;34475;51.658;5.634;2023-03-15T04:42:00;101240;;;1.9;100.0
48680;BME280;34475;51.658;5.634;2023-03-15T04:43:01;101240;;;1.9;100.0
48680;BME280;34475;51.658;5.634;2023-03-15T04:44:01;101240;;;1.9;100.0
48680;BME280;34475;51.658;5.634;2023-03-15T04:45:00;101240;;;1.9;100.0
48680;BME280;34475;51.658;5.634;2023-03-15T04:46:00;101250;;;1.9;100.0
48680;BME280;34475;51.658;5.634;2023-03-15T04:47:00;101250;;;1.9;100.0
48680;BME280;34475;51.658;5.634;2023-03-15T04:48:00;101250;;;1.9;100.0
48680;BME280;34475;51.658;5.634;2023-03-15T04:49:00;101250;;;1.9;100.0
48680;BME280;34475;51.658;5.634;2023-03-15T04:50:00;101250;;;1.9;100.0
48680;BME280;34475;51.658;5.634;2023-03-15T04:51:00;101250;;;1.9;100.0
48680;BME280;34475;51.658;5.634;2023-03-15T04:52:00;101250;;;1.9;100.0
48680;BME280;34475;51.658;5.634;2023-03-15T04:53:00;101250;;;1.9;100.0
48680;BME280;34475;51.658;5.634;2023-03-15T04:54:00;101250;;;1.8;100.0
48680;BME280;34475;51.658;5.634;2023-03-15T04:55:00;101250;;;1.8;100.0
48680;BME280;34475;51.658;5.634;2023-03-15T04:56:00;101250;;;1.9;100.0
48680;BME280;34475;51.658;5.634;2023-03-15T04:57:00;101250;;;1.9;100.0
48680;BME280;34475;51.658;5.634;2023-03-15T04:58:00;101250;;;1.8;100.0
48680;BME280;34475;51.658;5.634;2023-03-15T04:59:00;101250;;;1.8;100.0
48680;BME280;34475;51.658;5.634;2023-03-15T05:00:00;101260;;;1.9;100.0
48680;BME280;34475;51.658;5.634;2023-03-15T05:01:00;101260;;;1.9;100.0
48680;BME280;34475;51.658;5.634;2023-03-15T05:02:00;101270;;;1.8;100.0
48680;BME280;34475;51.658;5.634;2023-03-15T05:03:00;101270;;;1.8;100.0
48680;BME280;34475;51.658;5.634;2023-03-15T05:04:00;101270;;;1.8;100.0
48680;BME280;34475;51.658;5.634;2023-03-15T05:05:00;101270;;;1.8;100.0
48680;BME280;34475;51.658;5.634;2023-03-15T05:06:01;101270;;;1.8;100.0
48680;BME280;34475;51.658;5.634;2023-03-15T05:07:00;101270;;;1.8;100.0
48680;BME280;34475;51.658;5.634;2023-03-15T05:08:00;101280;;;1.8;100.0
48680;BME280;34475;51.658;5.634;2023-03-15T05:09:00;101280;;;1.8;100.0
48680;BME280;34475;51.658;5.634;2023-03-15T05:10:00;101280;;;1.8;100.0
48680;BME280;34475;51.658;5.634;2023-03-15T05:11:00;101280;;;1.8;100.0
48680;BME280;34475;51.658;5.634;2023-03-15T05:12:00;101280;;;1.7;100.0
48680;BME280;34475;51.658;5.634;2023-03-15T05:13:00;101280;;;1.7;100.0
48680;BME280;34475;51.658;5.634;2023-03-15T05:14:00;101280;;;1.7;100.0
48680;BME280;34475;51.658;5.634;2023-03-15T05:15:00;101280;;;1.7;100.0
48680;BME280;34475;51.658;5.634;2023-03-15T05:16:00;101280;;;1.8;100.0
48680;BME280;34475;51.658;5.634;2023-03-15T05:17:00;101280;;;1.8;100.0
48680;BME280;34475;51.658;5.634;2023-03-15T05:18:00;101290;;;1.7;100.0
48680;BME280;34475;51.658;5.634;2023-03-15T05:19:00;101290;;;1.7;100.0
48680;BME280;34475;51.658;5.634;2023-03-15T05:20:00;101290;;;1.8;100.0
48680;BME280;34475;51.658;5.634;2023-03-15T05:21:00;101290;;;1.8;100.0
48680;BME280;34475;51.658;5.634;2023-03-15T05:22:00;101290;;;1.7;100.0
48680;BME280;34475;51.658;5.634;2023-03-15T05:23:00;101290;;;1.7;100.0
48680;BME280;34475;51.658;5.634;2023-03-15T05:24:00;101280;;;1.7;100.0
48680;BME280;34475;51.658;5.634;2023-03-15T05:25:00;101280;;;1.7;100.0
48680;BME280;34475;51.658;5.634;2023-03-15T05:26:00;101290;;;1.7;100.0
48680;BME280;34475;51.658;5.634;2023-03-15T05:27:00;101290;;;1.7;100.0
48680;BME280;34475;51.658;5.634;2023-03-15T05:28:00;101290;;;1.7;100.0
48680;BME280;34475;51.658;5.634;2023-03-15T05:29:00;101290;;;1.7;100.0
48680;BME280;34475;51.658;5.634;2023-03-15T05:30:00;101300;;;1.7;100.0
48680;BME280;34475;51.658;5.634;2023-03-15T05:31:00;101300;;;1.7;100.0
48680;BME280;34475;51.658;5.634;2023-03-15T05:32:00;101300;;;1.6;100.0
48680;BME280;34475;51.658;5.634;2023-03-15T05:33:00;101300;;;1.6;100.0
48680;BME280;34475;51.658;5.634;2023-03-15T05:34:00;101300;;;1.6;100.0
48680;BME280;34475;51.658;5.634;2023-03-15T05:35:00;101300;;;1.6;100.0
48680;BME280;34475;51.658;5.634;2023-03-15T05:36:00;101300;;;1.6;100.0
48680;BME280;34475;51.658;5.634;2023-03-15T05:37:00;101300;;;1.6;100.0
48680;BME280;34475;51.658;5.634;2023-03-15T05:38:00;101290;;;1.6;100.0
48680;BME280;34475;51.658;5.634;2023-03-15T05:39:00;101290;;;1.6;100.0
48680;BME280;34475;51.658;5.634;2023-03-15T05:40:00;101300;;;1.5;100.0
48680;BME280;34475;51.658;5.634;2023-03-15T05:41:00;101300;;;1.5;100.0
48680;BME280;34475;51.658;5.634;2023-03-15T05:42:00;101300;;;1.6;100.0